createdAt,value
2022-09-15T00:01:22.220Z,14.10
2022-09-15T00:03:51.371Z,14.10
2022-09-15T00:06:20.317Z,14.10
2022-09-15T00:08:48.428Z,14.10
2022-09-15T00:11:19.507Z,14.20
2022-09-15T00:13:48.357Z,14.20
2022-09-15T00:16:17.596Z,14.20
2022-09-15T00:18:47.545Z,14.10
2022-09-15T00:21:17.430Z,14.10
2022-09-15T00:23:46.618Z,14.10
2022-09-15T00:26:18.220Z,14.10
2022-09-15T00:28:46.751Z,14.10
2022-09-15T00:31:17.217Z,14.10
2022-09-15T00:33:48.914Z,14.00
2022-09-15T00:36:18.358Z,14.00
2022-09-15T00:38:46.964Z,14.10
2022-09-15T00:41:18.113Z,14.10
2022-09-15T00:43:52.298Z,14.10
2022-09-15T00:46:23.816Z,14.20
2022-09-15T00:48:58.972Z,14.20
2022-09-15T00:51:33.097Z,14.20
2022-09-15T00:54:03.923Z,14.30
2022-09-15T00:56:34.714Z,14.30
2022-09-15T00:59:06.350Z,14.30
2022-09-15T01:01:34.763Z,14.30
2022-09-15T01:04:04.699Z,14.30
2022-09-15T01:06:36.696Z,14.30
2022-09-15T01:09:11.639Z,14.40
2022-09-15T01:11:43.238Z,14.40
2022-09-15T01:14:11.803Z,14.40
2022-09-15T01:16:53.008Z,14.30
2022-09-15T01:19:53.676Z,14.40
2022-09-15T01:22:36.168Z,14.30
2022-09-15T01:25:10.411Z,14.30
2022-09-15T01:28:14.317Z,14.30
2022-09-15T01:30:50.979Z,14.30
2022-09-15T01:33:30.646Z,14.20
2022-09-15T01:36:06.266Z,14.20
2022-09-15T01:38:55.724Z,14.20
2022-09-15T01:41:27.840Z,14.20
2022-09-15T01:44:00.885Z,14.20
2022-09-15T01:46:33.556Z,14.20
2022-09-15T01:49:03.258Z,14.10
2022-09-15T01:51:33.503Z,14.10
2022-09-15T01:54:05.065Z,14.00
2022-09-15T01:56:33.927Z,14.00
2022-09-15T01:59:02.096Z,14.00
2022-09-15T02:01:42.301Z,14.00
2022-09-15T02:04:15.639Z,14.10
2022-09-15T02:06:53.404Z,14.10
2022-09-15T02:09:25.392Z,14.10
2022-09-15T02:12:02.227Z,14.20
2022-09-15T02:14:43.105Z,14.20
2022-09-15T02:17:17.321Z,14.20
2022-09-15T02:19:49.221Z,14.20
2022-09-15T02:22:23.489Z,14.20
2022-09-15T02:24:59.016Z,14.30
2022-09-15T02:27:32.346Z,14.20
2022-09-15T02:30:08.348Z,14.20
2022-09-15T02:32:40.998Z,14.20
2022-09-15T02:35:11.695Z,14.20
2022-09-15T02:37:42.161Z,14.20
2022-09-15T02:40:11.404Z,14.20
2022-09-15T02:42:40.386Z,14.20
2022-09-15T02:45:10.051Z,14.20
2022-09-15T02:47:40.041Z,14.10
2022-09-15T02:50:09.285Z,14.10
2022-09-15T02:52:37.460Z,14.10
2022-09-15T02:55:06.369Z,14.10
2022-09-15T02:57:34.579Z,14.10
2022-09-15T03:00:16.849Z,14.00
2022-09-15T03:02:50.194Z,14.00
2022-09-15T03:05:20.807Z,14.00
2022-09-15T03:07:49.623Z,14.00
2022-09-15T03:10:19.202Z,14.00
2022-09-15T03:12:49.519Z,13.90
2022-09-15T03:15:20.966Z,13.90
2022-09-15T03:17:53.099Z,13.90
2022-09-15T03:20:22.842Z,13.90
2022-09-15T03:22:51.528Z,13.90
2022-09-15T03:25:19.894Z,13.90
2022-09-15T03:27:48.590Z,13.90
2022-09-15T03:30:17.074Z,13.90
2022-09-15T03:32:45.358Z,13.90
2022-09-15T03:35:14.938Z,13.90
2022-09-15T03:37:43.207Z,13.90
2022-09-15T03:40:12.225Z,13.90
2022-09-15T03:42:41.364Z,13.80
2022-09-15T03:45:10.330Z,13.90
2022-09-15T03:47:38.434Z,13.90
2022-09-15T03:50:07.934Z,13.90
2022-09-15T03:52:37.489Z,14.00
2022-09-15T03:55:06.472Z,14.00
2022-09-15T03:57:34.570Z,14.00
2022-09-15T04:00:03.316Z,14.00
2022-09-15T04:02:31.378Z,14.00
2022-09-15T04:04:59.926Z,14.00
2022-09-15T04:07:28.224Z,14.00
2022-09-15T04:09:57.754Z,14.00
2022-09-15T04:12:26.159Z,14.00
2022-09-15T04:14:54.581Z,13.90
2022-09-15T04:17:22.945Z,13.90
2022-09-15T04:19:51.414Z,13.90
2022-09-15T04:22:20.267Z,13.90
2022-09-15T04:24:48.899Z,13.90
2022-09-15T04:27:18.954Z,13.90
2022-09-15T04:29:47.268Z,13.80
2022-09-15T04:32:15.508Z,13.90
2022-09-15T04:34:43.754Z,13.90
2022-09-15T04:37:12.178Z,13.90
2022-09-15T04:39:40.535Z,13.90
2022-09-15T04:42:08.958Z,13.90
2022-09-15T04:44:38.670Z,13.90
2022-09-15T04:47:07.324Z,14.00
2022-09-15T04:49:35.525Z,14.00
2022-09-15T04:52:08.954Z,14.00
2022-09-15T04:54:37.822Z,14.00
2022-09-15T04:57:06.044Z,14.10
2022-09-15T04:59:34.292Z,14.10
2022-09-15T05:02:04.492Z,14.10
2022-09-15T05:04:32.870Z,14.10
2022-09-15T05:07:01.066Z,14.10
2022-09-15T05:09:30.962Z,14.10
2022-09-15T05:12:31.824Z,14.00
2022-09-15T05:15:00.888Z,14.10
2022-09-15T05:17:33.804Z,14.00
2022-09-15T05:20:02.532Z,14.00
2022-09-15T05:22:31.105Z,14.00
2022-09-15T05:24:59.374Z,14.00
2022-09-15T05:27:27.646Z,14.00
2022-09-15T05:30:09.957Z,14.00
2022-09-15T05:32:45.442Z,14.10
2022-09-15T05:35:13.780Z,14.10
2022-09-15T05:37:41.920Z,14.10
2022-09-15T05:40:11.360Z,14.10
2022-09-15T05:42:40.466Z,14.20
2022-09-15T05:45:10.792Z,14.20
2022-09-15T05:47:39.707Z,14.20
2022-09-15T05:50:11.188Z,14.20
2022-09-15T05:52:39.454Z,14.20
2022-09-15T05:55:08.206Z,14.30
2022-09-15T05:57:36.448Z,14.30
2022-09-15T06:00:06.345Z,14.30
2022-09-15T06:02:34.830Z,14.30
2022-09-15T06:05:03.098Z,14.30
2022-09-15T06:07:32.570Z,14.40
2022-09-15T06:10:01.566Z,14.40
2022-09-15T06:12:30.453Z,14.40
2022-09-15T06:15:00.094Z,14.50
2022-09-15T06:17:29.024Z,14.50
2022-09-15T06:20:00.070Z,14.60
2022-09-15T06:22:29.423Z,14.70
2022-09-15T06:24:59.032Z,14.70
2022-09-15T06:27:27.575Z,14.80
2022-09-15T06:29:55.618Z,14.80
2022-09-15T06:32:24.210Z,14.90
2022-09-15T06:34:52.474Z,14.90
2022-09-15T06:37:20.911Z,15.00
2022-09-15T06:39:49.371Z,15.00
2022-09-15T06:42:18.814Z,15.00
2022-09-15T06:44:47.631Z,15.00
2022-09-15T06:47:16.716Z,15.00
2022-09-15T06:49:44.896Z,15.00
2022-09-15T06:52:13.868Z,15.00
2022-09-15T06:54:41.998Z,15.10
2022-09-15T06:57:10.982Z,15.10
2022-09-15T06:59:40.682Z,15.20
2022-09-15T07:02:11.132Z,15.20
2022-09-15T07:04:39.653Z,15.30
2022-09-15T07:07:08.046Z,15.30
2022-09-15T07:09:40.952Z,15.30
2022-09-15T07:12:10.019Z,15.30
2022-09-15T07:14:38.179Z,15.40
2022-09-15T07:17:08.661Z,15.40
2022-09-15T07:19:37.031Z,15.50
2022-09-15T07:22:05.592Z,15.60
2022-09-15T07:24:33.937Z,15.70
2022-09-15T07:27:02.360Z,15.80
2022-09-15T07:29:32.193Z,15.80
2022-09-15T07:32:03.531Z,15.80
2022-09-15T07:34:33.802Z,15.80
2022-09-15T07:37:02.485Z,15.90
2022-09-15T07:39:30.950Z,15.90
2022-09-15T07:41:59.117Z,15.90
2022-09-15T07:44:27.674Z,15.90
2022-09-15T07:46:56.061Z,16.00
2022-09-15T07:49:24.207Z,16.00
2022-09-15T07:51:54.071Z,16.10
2022-09-15T07:54:23.136Z,16.20
2022-09-15T07:56:52.231Z,16.20
2022-09-15T07:59:20.313Z,16.20
2022-09-15T08:01:48.619Z,16.20
2022-09-15T08:04:16.804Z,16.20
2022-09-15T08:06:45.665Z,16.30
2022-09-15T08:09:17.815Z,16.40
2022-09-15T08:11:46.429Z,16.60
2022-09-15T08:14:14.997Z,16.90
2022-09-15T08:16:43.102Z,17.00
2022-09-15T08:19:12.807Z,17.00
2022-09-15T08:21:41.302Z,16.90
2022-09-15T08:24:11.255Z,16.90
2022-09-15T08:26:42.323Z,16.90
2022-09-15T08:29:11.123Z,16.90
2022-09-15T08:31:39.630Z,16.90
2022-09-15T08:34:08.211Z,16.90
2022-09-15T08:36:36.429Z,16.90
2022-09-15T08:39:05.888Z,16.90
2022-09-15T08:41:36.425Z,16.90
2022-09-15T08:44:16.282Z,16.80
2022-09-15T08:46:50.948Z,16.70
2022-09-15T08:49:49.937Z,16.80
2022-09-15T08:52:20.575Z,16.80
2022-09-15T08:54:50.352Z,16.90
2022-09-15T08:57:23.112Z,17.00
2022-09-15T08:59:54.472Z,17.10
2022-09-15T09:02:58.597Z,17.20
2022-09-15T09:05:46.241Z,17.40
2022-09-15T09:08:32.811Z,17.50
2022-09-15T09:11:11.483Z,17.50
2022-09-15T09:13:46.782Z,17.50
2022-09-15T09:16:39.977Z,17.60
2022-09-15T09:19:32.321Z,17.70
2022-09-15T09:22:07.686Z,17.70
2022-09-15T09:24:43.548Z,17.70
2022-09-15T09:27:18.858Z,17.80
2022-09-15T09:29:54.781Z,17.90
2022-09-15T09:32:27.759Z,17.90
2022-09-15T09:35:04.432Z,18.10
2022-09-15T09:37:35.974Z,18.20
2022-09-15T09:40:07.045Z,18.20
2022-09-15T09:42:38.020Z,18.20
2022-09-15T09:45:07.893Z,18.20
2022-09-15T09:47:39.940Z,18.30
2022-09-15T09:50:39.084Z,18.30
2022-09-15T09:53:20.653Z,18.30
2022-09-15T09:55:48.938Z,18.10
2022-09-15T09:58:21.591Z,18.00
2022-09-15T10:00:50.837Z,17.80
2022-09-15T10:03:21.114Z,17.80
2022-09-15T10:06:06.060Z,17.60
2022-09-15T10:08:36.585Z,17.40
2022-09-15T10:11:07.143Z,17.40
2022-09-15T10:13:37.252Z,17.20
2022-09-15T10:16:07.909Z,17.00
2022-09-15T10:18:39.213Z,16.90
2022-09-15T10:21:12.325Z,16.80
2022-09-15T10:23:45.094Z,16.60
2022-09-15T10:26:33.193Z,16.30
2022-09-15T10:29:17.301Z,15.90
2022-09-15T10:31:49.216Z,15.90
2022-09-15T10:34:31.808Z,15.90
2022-09-15T10:37:18.005Z,15.90
2022-09-15T10:39:53.555Z,16.10
2022-09-15T10:42:32.154Z,16.20
2022-09-15T10:45:14.494Z,16.50
2022-09-15T10:47:54.280Z,16.60
2022-09-15T10:50:32.876Z,16.60
2022-09-15T10:53:15.082Z,16.70
2022-09-15T10:55:53.779Z,16.60
2022-09-15T10:58:45.913Z,16.60
2022-09-15T11:01:40.194Z,16.60
2022-09-15T11:04:42.309Z,16.80
2022-09-15T11:07:18.240Z,16.80
2022-09-15T11:09:52.520Z,17.00
2022-09-15T11:12:32.907Z,17.10
2022-09-15T11:15:24.832Z,17.20
2022-09-15T11:18:13.312Z,17.30
2022-09-15T11:20:56.155Z,17.30
2022-09-15T11:23:32.642Z,17.30
2022-09-15T11:26:11.671Z,17.30
2022-09-15T11:28:45.382Z,17.40
2022-09-15T11:31:19.739Z,17.50
2022-09-15T11:33:56.134Z,17.60
2022-09-15T11:36:31.998Z,17.60
2022-09-15T11:39:08.869Z,17.70
2022-09-15T11:41:43.519Z,17.70
2022-09-15T11:44:22.692Z,17.80
2022-09-15T11:47:02.944Z,17.90
2022-09-15T11:49:36.492Z,18.00
2022-09-15T11:52:10.842Z,18.10
2022-09-15T11:54:45.641Z,18.30
2022-09-15T11:57:19.706Z,18.20
2022-09-15T11:59:54.660Z,18.20
2022-09-15T12:02:31.747Z,18.20
2022-09-15T12:05:09.552Z,18.30
2022-09-15T12:07:44.686Z,18.30
2022-09-15T12:10:20.475Z,18.20
2022-09-15T12:12:51.747Z,18.30
2022-09-15T12:15:27.387Z,18.30
2022-09-15T12:18:06.565Z,18.40
2022-09-15T12:20:54.664Z,18.40
2022-09-15T12:23:28.415Z,18.40
2022-09-15T12:26:15.240Z,18.40
2022-09-15T12:28:56.481Z,18.50
2022-09-15T12:31:31.437Z,18.60
2022-09-15T12:34:01.992Z,18.70
2022-09-15T12:36:46.020Z,18.80
2022-09-15T12:39:39.215Z,19.00
2022-09-15T12:42:22.202Z,18.90
2022-09-15T12:44:58.109Z,18.80
2022-09-15T12:47:32.263Z,18.90
2022-09-15T12:50:06.996Z,19.10
2022-09-15T12:52:44.892Z,19.10
2022-09-15T12:55:21.240Z,19.10
2022-09-15T12:57:58.464Z,19.20
2022-09-15T13:00:42.372Z,19.10
2022-09-15T13:04:10.980Z,19.10
2022-09-15T13:06:39.248Z,19.00
2022-09-15T13:09:27.390Z,18.90
2022-09-15T13:11:57.336Z,18.90
2022-09-15T13:14:33.873Z,19.10
2022-09-15T13:17:12.426Z,19.20
2022-09-15T13:19:46.871Z,19.20
2022-09-15T13:22:23.603Z,19.20
2022-09-15T13:24:59.277Z,19.10
2022-09-15T13:27:44.963Z,19.10
2022-09-15T13:30:31.216Z,19.20
2022-09-15T13:33:07.952Z,19.30
2022-09-15T13:35:52.427Z,19.40
2022-09-15T13:38:56.528Z,19.50
2022-09-15T13:41:51.221Z,19.50
2022-09-15T13:44:32.428Z,19.40
2022-09-15T13:47:17.632Z,19.40
2022-09-15T13:49:52.564Z,19.40
2022-09-15T13:52:34.252Z,19.20
2022-09-15T13:55:11.296Z,19.20
2022-09-15T14:00:32.409Z,19.10
2022-09-15T14:03:06.573Z,19.10
2022-09-15T14:05:37.354Z,19.00
2022-09-15T14:08:10.283Z,18.90
2022-09-15T14:10:48.094Z,18.80
2022-09-15T14:13:18.994Z,18.80
2022-09-15T14:15:58.947Z,18.70
2022-09-15T14:18:28.062Z,18.70
2022-09-15T14:21:03.420Z,18.70
2022-09-15T14:23:33.006Z,18.70
2022-09-15T14:26:10.959Z,18.60
2022-09-15T14:28:40.512Z,18.60
2022-09-15T14:31:10.686Z,18.50
2022-09-15T14:33:41.478Z,18.50
2022-09-15T14:36:24.520Z,18.50
2022-09-15T14:39:19.741Z,18.50
2022-09-15T14:41:51.023Z,18.50
2022-09-15T14:47:21.858Z,18.40
2022-09-15T14:54:32.587Z,18.40
2022-09-15T14:57:06.824Z,18.40
2022-09-15T14:59:45.998Z,18.40
2022-09-15T15:02:28.635Z,18.30
2022-09-15T15:05:07.519Z,18.20
2022-09-15T15:07:39.393Z,18.10
2022-09-15T15:10:17.937Z,18.00
2022-09-15T15:12:51.884Z,17.80
2022-09-15T15:15:22.485Z,17.60
2022-09-15T15:18:31.991Z,17.50
2022-09-15T15:21:00.756Z,17.40
2022-09-15T15:23:29.579Z,17.40
2022-09-15T15:26:33.896Z,17.40
2022-09-15T15:29:30.192Z,17.30
2022-09-15T15:32:06.693Z,17.30
2022-09-15T15:34:36.045Z,17.20
2022-09-15T15:37:33.385Z,17.20
2022-09-15T15:40:05.923Z,17.10
2022-09-15T15:42:35.832Z,17.10
2022-09-15T15:45:23.081Z,17.10
2022-09-15T15:47:51.259Z,17.00
2022-09-15T15:50:28.328Z,17.10
2022-09-15T15:52:57.012Z,17.10
2022-09-15T15:55:49.045Z,17.10
2022-09-15T15:58:18.001Z,17.10
2022-09-15T16:00:49.166Z,17.10
2022-09-15T16:03:18.279Z,17.00
2022-09-15T16:05:49.119Z,17.10
2022-09-15T16:08:24.622Z,17.10
2022-09-15T16:10:54.407Z,17.00
2022-09-15T16:13:24.256Z,17.10
2022-09-15T16:15:54.755Z,17.10
2022-09-15T16:18:23.010Z,17.10
2022-09-15T16:20:51.535Z,17.20
2022-09-15T16:23:22.907Z,17.20
2022-09-15T16:25:56.293Z,17.10
2022-09-15T16:28:24.934Z,17.10
2022-09-15T16:30:54.384Z,17.20
2022-09-15T16:33:22.923Z,17.20
2022-09-15T16:35:55.294Z,17.10
2022-09-15T16:38:28.196Z,16.90
2022-09-15T16:40:56.804Z,16.80
2022-09-15T16:43:25.188Z,16.80
2022-09-15T16:45:54.685Z,16.70
2022-09-15T16:48:23.053Z,16.70
2022-09-15T16:53:40.881Z,16.60
2022-09-15T16:56:12.574Z,16.50
2022-09-15T16:58:41.125Z,16.50
2022-09-15T17:01:18.265Z,16.50
2022-09-15T17:03:47.043Z,16.50
2022-09-15T17:06:16.980Z,16.50
2022-09-15T17:08:45.821Z,16.50
2022-09-15T17:11:16.837Z,16.50
2022-09-15T17:13:46.112Z,16.40
2022-09-15T17:16:19.508Z,16.40
2022-09-15T17:18:48.405Z,16.50
2022-09-15T17:21:18.742Z,16.40
2022-09-15T17:23:48.827Z,16.40
2022-09-15T17:26:21.906Z,16.40
2022-09-15T17:28:50.748Z,16.30
2022-09-15T17:31:21.927Z,16.30
2022-09-15T17:33:51.059Z,16.30
2022-09-15T17:36:19.841Z,16.30
2022-09-15T17:38:48.970Z,16.20
2022-09-15T17:41:19.336Z,16.20
2022-09-15T17:43:48.052Z,16.20
2022-09-15T17:46:16.605Z,16.10
2022-09-15T17:48:46.511Z,16.10
2022-09-15T17:51:18.557Z,16.20
2022-09-15T17:53:47.799Z,16.10
2022-09-15T17:56:16.307Z,16.10
2022-09-15T17:58:44.519Z,16.10
2022-09-15T18:01:14.530Z,16.10
2022-09-15T18:03:47.433Z,16.10
2022-09-15T18:06:15.676Z,16.00
2022-09-15T18:08:43.971Z,16.00
2022-09-15T18:11:15.237Z,16.00
2022-09-15T18:13:43.500Z,16.00
2022-09-15T18:16:14.281Z,15.90
2022-09-15T18:18:46.656Z,15.80
2022-09-15T18:21:31.646Z,15.80
2022-09-15T18:24:19.318Z,15.80
2022-09-15T18:27:00.071Z,15.80
2022-09-15T18:29:42.516Z,15.80
2022-09-15T18:32:18.083Z,15.80
2022-09-15T18:35:02.573Z,15.70
2022-09-15T18:37:45.406Z,15.70
2022-09-15T18:40:21.324Z,15.70
2022-09-15T18:42:56.553Z,15.60
2022-09-15T18:45:27.138Z,15.60
2022-09-15T18:47:55.858Z,15.60
2022-09-15T18:50:28.216Z,15.60
2022-09-15T18:52:57.925Z,15.50
2022-09-15T18:55:26.301Z,15.50
2022-09-15T18:57:56.900Z,15.30
2022-09-15T19:00:30.219Z,15.30
2022-09-15T19:03:08.180Z,15.20
2022-09-15T19:05:41.372Z,15.20
2022-09-15T19:08:12.119Z,15.10
2022-09-15T19:10:45.919Z,15.00
2022-09-15T19:13:19.308Z,14.90
2022-09-15T19:15:54.835Z,14.90
2022-09-15T19:18:25.849Z,14.90
2022-09-15T19:21:02.453Z,14.80
2022-09-15T19:23:47.273Z,14.90
2022-09-15T19:26:17.019Z,14.90
2022-09-15T19:29:01.366Z,14.90
2022-09-15T19:31:54.597Z,14.90
2022-09-15T19:34:47.630Z,14.80
2022-09-15T19:37:18.967Z,14.80
2022-09-15T19:39:54.431Z,14.80
2022-09-15T19:42:26.407Z,14.80
2022-09-15T19:44:59.249Z,14.80
2022-09-15T19:48:18.423Z,14.70
2022-09-15T19:50:48.157Z,14.70
2022-09-15T19:53:16.354Z,14.70
2022-09-15T19:55:50.699Z,14.60
2022-09-15T19:58:20.190Z,14.50
2022-09-15T20:00:54.350Z,14.40
2022-09-15T20:03:23.655Z,14.30
2022-09-15T20:05:52.871Z,14.20
2022-09-15T20:08:21.941Z,14.20
2022-09-15T20:10:52.362Z,14.20
2022-09-15T20:13:20.504Z,14.20
2022-09-15T20:15:59.036Z,14.10
2022-09-15T20:18:27.994Z,14.10
2022-09-15T20:20:57.619Z,14.10
2022-09-15T20:23:25.868Z,14.10
2022-09-15T20:26:05.037Z,14.10
2022-09-15T20:28:41.147Z,14.10
2022-09-15T20:31:19.487Z,14.10
2022-09-15T20:34:07.804Z,14.00
2022-09-15T20:36:48.439Z,14.10
2022-09-15T20:39:20.688Z,14.20
2022-09-15T20:41:50.196Z,14.30
2022-09-15T20:44:18.234Z,14.30
2022-09-15T20:46:50.537Z,14.30
2022-09-15T20:49:22.948Z,14.20
2022-09-15T20:51:52.010Z,14.20
2022-09-15T20:54:20.355Z,14.20
2022-09-15T20:56:50.457Z,14.10
2022-09-15T20:59:18.948Z,14.10
2022-09-15T21:01:53.292Z,14.10
2022-09-15T21:04:23.390Z,14.00
2022-09-15T21:06:55.623Z,14.00
2022-09-15T21:09:24.292Z,13.90
2022-09-15T21:11:53.970Z,13.90
2022-09-15T21:14:22.069Z,14.00
2022-09-15T21:16:50.724Z,14.00
2022-09-15T21:19:19.026Z,14.00
2022-09-15T21:21:47.248Z,14.00
2022-09-15T21:24:15.794Z,14.00
2022-09-15T21:26:57.899Z,14.00
2022-09-15T21:29:28.069Z,14.00
2022-09-15T21:31:57.902Z,14.00
2022-09-15T21:34:26.416Z,14.10
2022-09-15T21:36:54.988Z,14.10
2022-09-15T21:39:23.276Z,14.10
2022-09-15T21:41:54.604Z,14.00
2022-09-15T21:44:22.926Z,14.00
2022-09-15T21:46:52.696Z,14.00
2022-09-15T21:49:21.077Z,14.00
2022-09-15T21:51:49.546Z,13.90
2022-09-15T21:54:18.041Z,13.90
2022-09-15T21:56:46.100Z,13.90
2022-09-15T21:59:14.612Z,13.90
2022-09-15T22:01:42.798Z,13.80
2022-09-15T22:04:12.402Z,13.80
2022-09-15T22:06:42.904Z,13.70
2022-09-15T22:09:15.544Z,13.70
2022-09-15T22:11:43.984Z,13.60
2022-09-15T22:14:13.337Z,13.50
2022-09-15T22:16:43.158Z,13.40
2022-09-15T22:19:13.874Z,13.30
2022-09-15T22:21:42.663Z,13.20
2022-09-15T22:24:12.711Z,13.20
2022-09-15T22:26:42.368Z,13.20
2022-09-15T22:29:10.947Z,13.10
2022-09-15T22:31:39.537Z,13.10
2022-09-15T22:34:07.900Z,13.00
2022-09-15T22:36:37.589Z,13.00
2022-09-15T22:39:06.711Z,12.90
2022-09-15T22:41:37.591Z,12.80
2022-09-15T22:44:06.522Z,12.80
2022-09-15T22:46:35.456Z,12.80
2022-09-15T22:49:03.839Z,12.80
2022-09-15T22:51:32.161Z,12.80
2022-09-15T22:54:03.489Z,12.70
2022-09-15T22:56:31.877Z,12.80
2022-09-15T22:59:00.361Z,12.70
2022-09-15T23:01:31.189Z,12.70
2022-09-15T23:04:01.107Z,12.70
2022-09-15T23:06:32.370Z,12.70
2022-09-15T23:09:03.645Z,12.70
2022-09-15T23:11:33.929Z,12.80
2022-09-15T23:14:02.746Z,12.90
2022-09-15T23:16:32.476Z,12.90
2022-09-15T23:19:01.181Z,13.00
2022-09-15T23:21:32.631Z,13.00
2022-09-15T23:24:02.689Z,13.00
2022-09-15T23:26:32.351Z,13.10
2022-09-15T23:29:01.213Z,13.10
2022-09-15T23:31:29.690Z,13.10
2022-09-15T23:33:58.564Z,13.20
2022-09-15T23:36:27.581Z,13.10
2022-09-15T23:38:56.235Z,13.20
2022-09-15T23:41:27.689Z,13.20
2022-09-15T23:43:57.430Z,13.20
2022-09-15T23:46:26.284Z,13.10
2022-09-15T23:48:55.769Z,13.20
2022-09-15T23:51:24.605Z,13.20
2022-09-15T23:53:53.264Z,13.20
2022-09-15T23:56:21.773Z,13.20
2022-09-15T23:58:52.211Z,13.20
